createdAt,value
2022-11-04T00:01:40.337Z,99600.09
2022-11-04T00:04:08.584Z,99600.25
2022-11-04T00:06:37.250Z,99599.56
2022-11-04T00:09:08.626Z,99601.72
2022-11-04T00:11:54.389Z,99600.78
2022-11-04T00:14:22.969Z,99609.00
2022-11-04T00:17:08.340Z,99606.31
2022-11-04T00:19:50.098Z,99605.00
2022-11-04T00:22:35.210Z,99597.47
2022-11-04T00:25:22.488Z,99593.59
2022-11-04T00:28:08.442Z,99592.22
2022-11-04T00:30:36.598Z,99573.53
2022-11-04T00:33:22.134Z,99579.16
2022-11-04T00:35:50.637Z,99567.78
2022-11-04T00:38:19.004Z,99565.31
2022-11-04T00:40:48.323Z,99572.44
2022-11-04T00:43:16.395Z,99560.16
2022-11-04T00:45:44.373Z,99570.69
2022-11-04T00:48:12.586Z,99554.88
2022-11-04T00:50:40.699Z,99561.13
2022-11-04T00:53:09.080Z,99552.88
2022-11-04T00:55:37.240Z,99545.84
2022-11-04T00:58:06.515Z,99548.59
2022-11-04T01:00:34.430Z,99539.22
2022-11-04T01:03:02.367Z,99546.59
2022-11-04T01:05:30.378Z,99536.19
2022-11-04T01:07:58.646Z,99517.19
2022-11-04T01:10:26.546Z,99527.66
2022-11-04T01:12:54.482Z,99526.50
2022-11-04T01:15:23.822Z,99517.94
2022-11-04T01:17:51.889Z,99521.41
2022-11-04T01:20:20.338Z,99517.19
2022-11-04T01:22:48.238Z,99517.78
2022-11-04T01:25:16.282Z,99517.59
2022-11-04T01:27:44.276Z,99523.19
2022-11-04T01:30:13.286Z,99521.69
2022-11-04T01:32:42.631Z,99523.38
2022-11-04T01:35:11.423Z,99519.59
2022-11-04T01:37:39.405Z,99522.59
2022-11-04T01:40:08.505Z,99522.56
2022-11-04T01:42:36.404Z,99532.56
2022-11-04T01:45:04.496Z,99524.19
2022-11-04T01:47:38.284Z,99517.59
2022-11-04T01:50:12.538Z,99512.16
2022-11-04T01:52:46.927Z,99514.13
2022-11-04T01:55:18.170Z,99512.72
2022-11-04T01:57:49.725Z,99506.34
2022-11-04T02:00:18.307Z,99512.81
2022-11-04T02:02:55.758Z,99512.31
2022-11-04T02:05:25.188Z,99511.19
2022-11-04T02:07:57.905Z,99513.75
2022-11-04T02:10:28.942Z,99509.91
2022-11-04T02:12:58.281Z,99508.03
2022-11-04T02:15:36.299Z,99508.69
2022-11-04T02:18:18.913Z,99505.81
2022-11-04T02:21:20.562Z,99504.63
2022-11-04T02:24:10.231Z,99513.00
2022-11-04T02:27:16.724Z,99513.25
2022-11-04T02:30:05.012Z,99508.69
2022-11-04T02:32:47.770Z,99503.34
2022-11-04T02:35:24.881Z,99505.72
2022-11-04T02:38:02.391Z,99506.09
2022-11-04T02:40:37.407Z,99492.09
2022-11-04T02:43:14.295Z,99489.53
2022-11-04T02:45:47.995Z,99496.50
2022-11-04T02:48:26.038Z,99492.72
2022-11-04T02:50:59.779Z,99484.91
2022-11-04T02:53:33.786Z,99489.00
2022-11-04T02:56:04.265Z,99482.63
2022-11-04T02:58:36.743Z,99487.34
2022-11-04T03:01:09.320Z,99482.16
2022-11-04T03:03:41.295Z,99481.03
2022-11-04T03:06:12.206Z,99476.09
2022-11-04T03:08:42.401Z,99478.56
2022-11-04T03:11:14.943Z,99481.00
2022-11-04T03:13:48.211Z,99481.41
2022-11-04T03:16:21.585Z,99474.59
2022-11-04T03:19:00.320Z,99474.41
2022-11-04T03:21:32.449Z,99478.09
2022-11-04T03:24:02.067Z,99472.53
2022-11-04T03:26:33.599Z,99478.81
2022-11-04T03:29:09.173Z,99482.38
2022-11-04T03:31:46.820Z,99478.16
2022-11-04T03:34:14.883Z,99483.75
2022-11-04T03:36:43.000Z,99471.88
2022-11-04T03:39:11.435Z,99461.47
2022-11-04T03:41:45.503Z,99468.91
2022-11-04T03:44:13.543Z,99466.91
2022-11-04T03:46:43.582Z,99468.97
2022-11-04T03:49:13.505Z,99468.75
2022-11-04T03:51:41.417Z,99458.38
2022-11-04T03:54:09.828Z,99459.09
2022-11-04T03:56:57.376Z,99452.81
2022-11-04T03:59:47.584Z,99444.59
2022-11-04T04:02:21.595Z,99452.97
2022-11-04T04:04:57.426Z,99458.31
2022-11-04T04:07:31.404Z,99443.78
2022-11-04T04:10:25.630Z,99449.13
2022-11-04T04:12:57.256Z,99454.56
2022-11-04T04:15:30.705Z,99445.78
2022-11-04T04:18:04.491Z,99440.84
2022-11-04T04:20:36.652Z,99439.53
2022-11-04T04:23:28.583Z,99440.56
2022-11-04T04:26:18.204Z,99454.91
2022-11-04T04:28:47.970Z,99453.88
2022-11-04T04:31:39.320Z,99454.28
2022-11-04T04:34:09.347Z,99450.09
2022-11-04T04:36:45.350Z,99455.97
2022-11-04T04:39:33.619Z,99460.97
2022-11-04T04:42:19.299Z,99463.28
2022-11-04T04:45:03.417Z,99461.13
2022-11-04T04:47:40.902Z,99474.28
2022-11-04T04:50:12.418Z,99488.78
2022-11-04T04:52:43.231Z,99493.56
2022-11-04T04:55:12.475Z,99493.44
2022-11-04T04:57:41.155Z,99483.69
2022-11-04T05:00:12.860Z,99480.13
2022-11-04T05:02:40.908Z,99478.97
2022-11-04T05:05:11.286Z,99465.25
2022-11-04T05:07:39.256Z,99476.06
2022-11-04T05:10:08.331Z,99486.00
2022-11-04T05:12:54.294Z,99473.34
2022-11-04T05:15:22.449Z,99463.94
2022-11-04T05:17:55.677Z,99454.09
2022-11-04T05:20:25.311Z,99442.25
2022-11-04T05:22:53.397Z,99429.63
2022-11-04T05:25:21.365Z,99418.47
2022-11-04T05:27:49.280Z,99412.28
2022-11-04T05:30:17.414Z,99422.34
2022-11-04T05:32:45.330Z,99438.66
2022-11-04T05:35:13.298Z,99456.91
2022-11-04T05:37:42.567Z,99473.31
2022-11-04T05:40:11.629Z,99472.78
2022-11-04T05:42:39.601Z,99462.88
2022-11-04T05:45:08.485Z,99444.03
2022-11-04T05:47:36.533Z,99440.78
2022-11-04T05:50:04.922Z,99450.03
2022-11-04T05:52:32.969Z,99443.16
2022-11-04T05:55:02.365Z,99469.66
2022-11-04T05:57:30.288Z,99460.81
2022-11-04T05:59:58.216Z,99456.63
2022-11-04T06:02:26.298Z,99470.00
2022-11-04T06:04:54.484Z,99477.09
2022-11-04T06:07:22.356Z,99471.31
2022-11-04T06:09:50.326Z,99467.69
2022-11-04T06:12:19.708Z,99459.34
2022-11-04T06:14:47.607Z,99458.53
2022-11-04T06:17:17.111Z,99467.84
2022-11-04T06:19:45.181Z,99467.56
2022-11-04T06:22:14.402Z,99476.56
2022-11-04T06:24:42.847Z,99473.44
2022-11-04T06:27:11.510Z,99433.31
2022-11-04T06:29:41.732Z,99423.25
2022-11-04T06:32:09.835Z,99432.44
2022-11-04T06:34:37.912Z,99436.97
2022-11-04T06:37:06.181Z,99428.72
2022-11-04T06:39:34.600Z,99444.34
2022-11-04T06:42:03.145Z,99440.91
2022-11-04T06:44:31.432Z,99427.31
2022-11-04T06:47:00.730Z,99442.66
2022-11-04T06:49:28.906Z,99456.41
2022-11-04T06:51:56.861Z,99462.56
2022-11-04T06:54:24.786Z,99449.44
2022-11-04T06:56:52.698Z,99458.56
2022-11-04T06:59:22.286Z,99475.25
2022-11-04T07:01:51.984Z,99495.06
2022-11-04T07:04:21.451Z,99502.00
2022-11-04T07:06:49.498Z,99485.00
2022-11-04T07:09:18.376Z,99502.72
2022-11-04T07:11:47.069Z,99526.41
2022-11-04T07:14:15.021Z,99536.34
2022-11-04T07:16:42.923Z,99548.78
2022-11-04T07:19:10.965Z,99560.88
2022-11-04T07:21:40.357Z,99565.22
2022-11-04T07:24:08.495Z,99552.47
2022-11-04T07:26:39.197Z,99548.81
2022-11-04T07:29:07.080Z,99561.09
2022-11-04T07:31:35.062Z,99560.38
2022-11-04T07:34:03.231Z,99568.09
2022-11-04T07:36:31.410Z,99571.25
2022-11-04T07:39:01.057Z,99620.34
2022-11-04T07:41:29.601Z,99610.63
2022-11-04T07:43:58.931Z,99627.03
2022-11-04T07:46:26.929Z,99628.50
2022-11-04T07:48:58.629Z,99622.25
2022-11-04T07:51:27.632Z,99636.44
2022-11-04T07:53:56.843Z,99630.59
2022-11-04T07:56:26.646Z,99636.06
2022-11-04T07:58:54.901Z,99643.63
2022-11-04T08:01:24.968Z,99626.97
2022-11-04T08:03:53.697Z,99624.63
2022-11-04T08:06:22.616Z,99619.72
2022-11-04T08:08:54.157Z,99610.38
2022-11-04T08:11:25.301Z,99616.59
2022-11-04T08:13:55.447Z,99620.13
2022-11-04T08:16:31.487Z,99615.16
2022-11-04T08:19:02.365Z,99628.25
2022-11-04T08:21:31.742Z,99630.81
2022-11-04T08:23:59.859Z,99629.28
2022-11-04T08:26:27.809Z,99642.28
2022-11-04T08:28:57.367Z,99645.13
2022-11-04T08:31:26.710Z,99622.41
2022-11-04T08:33:56.189Z,99662.13
2022-11-04T08:36:26.213Z,99653.66
2022-11-04T08:38:55.113Z,99654.56
2022-11-04T08:41:25.619Z,99645.84
2022-11-04T08:43:54.480Z,99644.41
2022-11-04T08:46:23.877Z,99636.28
2022-11-04T08:48:51.930Z,99647.31
2022-11-04T08:51:22.304Z,99659.44
2022-11-04T08:53:50.397Z,99660.94
2022-11-04T08:56:20.982Z,99677.81
2022-11-04T08:58:50.081Z,99695.84
2022-11-04T09:01:20.806Z,99652.72
2022-11-04T09:03:51.160Z,99638.00
2022-11-04T09:06:21.152Z,99639.44
2022-11-04T09:08:50.217Z,99636.25
2022-11-04T09:11:18.466Z,99649.09
2022-11-04T09:13:46.415Z,99641.00
2022-11-04T09:16:15.551Z,99658.44
2022-11-04T09:18:43.842Z,99672.59
2022-11-04T09:21:13.488Z,99680.41
2022-11-04T09:23:41.634Z,99696.53
2022-11-04T09:26:13.025Z,99694.31
2022-11-04T09:28:41.511Z,99704.19
2022-11-04T09:31:12.206Z,99705.94
2022-11-04T09:33:40.228Z,99697.63
2022-11-04T09:36:09.291Z,99692.91
2022-11-04T09:38:39.248Z,99690.84
2022-11-04T09:41:26.259Z,99695.25
2022-11-04T09:44:05.062Z,99696.41
2022-11-04T09:46:35.502Z,99694.47
2022-11-04T09:49:07.346Z,99694.53
2022-11-04T09:54:28.382Z,99678.47
2022-11-04T09:57:00.741Z,99679.56
2022-11-04T09:59:33.072Z,99679.22
2022-11-04T10:02:24.414Z,99674.72
2022-11-04T10:05:04.888Z,99666.13
2022-11-04T10:07:45.329Z,99681.44
2022-11-04T10:10:23.194Z,99677.34
2022-11-04T10:13:07.407Z,99655.66
2022-11-04T10:15:48.874Z,99671.13
2022-11-04T10:18:35.252Z,99671.81
2022-11-04T10:21:13.350Z,99671.16
2022-11-04T10:23:46.053Z,99683.91
2022-11-04T10:26:19.359Z,99672.06
2022-11-04T10:28:51.186Z,99682.72
2022-11-04T10:31:20.208Z,99685.25
2022-11-04T10:33:53.002Z,99679.59
2022-11-04T10:36:22.389Z,99690.22
2022-11-04T10:38:52.423Z,99684.91
2022-11-04T10:41:29.352Z,99684.28
2022-11-04T10:44:02.767Z,99687.84
2022-11-04T10:46:41.626Z,99692.09
2022-11-04T10:49:38.264Z,99683.78
2022-11-04T10:52:07.823Z,99675.81
2022-11-04T10:54:41.197Z,99681.94
2022-11-04T10:57:12.073Z,99681.59
2022-11-04T10:59:51.409Z,99680.22
2022-11-04T11:02:19.980Z,99683.75
2022-11-04T11:04:49.392Z,99694.13
2022-11-04T11:07:23.637Z,99700.25
2022-11-04T11:09:56.963Z,99700.69
2022-11-04T11:12:51.675Z,99683.69
2022-11-04T11:15:30.338Z,99690.72
2022-11-04T11:18:02.267Z,99688.94
2022-11-04T11:20:32.482Z,99684.22
2022-11-04T11:23:04.797Z,99687.25
2022-11-04T11:25:34.304Z,99695.28
2022-11-04T11:28:06.891Z,99681.47
2022-11-04T11:30:42.164Z,99690.31
2022-11-04T11:33:19.198Z,99701.81
2022-11-04T11:35:54.297Z,99692.72
2022-11-04T11:38:24.721Z,99687.28
2022-11-04T11:41:23.421Z,99684.69
2022-11-04T11:43:52.098Z,99698.63
2022-11-04T11:46:23.787Z,99691.56
2022-11-04T11:48:53.940Z,99695.56
2022-11-04T11:51:31.507Z,99686.53
2022-11-04T11:54:16.822Z,99681.31
2022-11-04T11:57:11.837Z,99677.97
2022-11-04T12:02:45.726Z,99704.03
2022-11-04T12:11:19.917Z,99727.56
2022-11-04T12:13:53.401Z,99724.19
2022-11-04T12:16:33.745Z,99722.00
2022-11-04T12:19:31.577Z,99721.59
2022-11-04T12:22:06.297Z,99733.91
2022-11-04T12:24:45.091Z,99749.69
2022-11-04T12:27:21.794Z,99737.09
2022-11-04T12:30:04.476Z,99733.03
2022-11-04T12:32:45.319Z,99721.38
2022-11-04T12:35:27.282Z,99727.28
2022-11-04T12:38:08.820Z,99730.78
2022-11-04T12:41:04.946Z,99733.47
2022-11-04T12:43:41.167Z,99721.97
2022-11-04T12:46:17.232Z,99725.03
2022-11-04T12:49:06.014Z,99729.72
2022-11-04T12:51:44.068Z,99727.47
2022-11-04T12:54:38.392Z,99728.75
2022-11-04T12:57:18.738Z,99744.50
2022-11-04T12:59:59.458Z,99777.72
2022-11-04T13:02:32.175Z,99757.97
2022-11-04T13:05:09.507Z,99759.66
2022-11-04T13:07:44.157Z,99747.88
2022-11-04T13:10:20.731Z,99756.97
2022-11-04T13:12:52.824Z,99759.00
2022-11-04T13:15:24.038Z,99763.56
2022-11-04T13:17:56.635Z,99770.78
2022-11-04T13:20:35.581Z,99769.97
2022-11-04T13:23:07.433Z,99774.69
2022-11-04T13:25:41.071Z,99757.41
2022-11-04T13:28:14.293Z,99761.75
2022-11-04T13:30:48.367Z,99751.94
2022-11-04T13:33:26.727Z,99768.97
2022-11-04T13:36:04.286Z,99790.91
2022-11-04T13:38:37.440Z,99785.09
2022-11-04T13:41:23.082Z,99772.56
2022-11-04T13:43:54.903Z,99770.41
2022-11-04T13:46:30.603Z,99790.81
2022-11-04T13:49:02.333Z,99776.28
2022-11-04T13:51:39.373Z,99771.50
2022-11-04T13:54:14.668Z,99774.47
2022-11-04T13:56:43.350Z,99778.88
2022-11-04T13:59:24.337Z,99775.78
2022-11-04T14:02:40.673Z,99787.19
2022-11-04T14:05:46.233Z,99790.81
2022-11-04T14:08:17.130Z,99790.97
2022-11-04T14:10:47.813Z,99801.16
2022-11-04T14:13:44.915Z,99799.78
2022-11-04T14:16:16.069Z,99802.41
2022-11-04T14:18:46.027Z,99797.94
2022-11-04T14:21:15.475Z,99809.44
2022-11-04T14:23:47.680Z,99806.84
2022-11-04T14:26:18.978Z,99812.97
2022-11-04T14:28:51.855Z,99836.66
2022-11-04T14:31:37.188Z,99821.06
2022-11-04T14:34:06.455Z,99820.59
2022-11-04T14:36:36.863Z,99811.72
2022-11-04T14:39:20.933Z,99808.56
2022-11-04T14:41:58.697Z,99819.44
2022-11-04T14:44:32.342Z,99820.75
2022-11-04T14:47:03.895Z,99834.47
2022-11-04T14:49:41.487Z,99837.91
2022-11-04T14:52:19.630Z,99825.44
2022-11-04T14:54:50.486Z,99830.72
2022-11-04T14:57:20.831Z,99834.66
2022-11-04T14:59:49.978Z,99835.66
2022-11-04T15:02:22.204Z,99854.41
2022-11-04T15:04:53.998Z,99858.97
2022-11-04T15:07:36.831Z,99854.97
2022-11-04T15:10:21.574Z,99859.53
2022-11-04T15:12:54.793Z,99862.72
2022-11-04T15:15:32.226Z,99864.59
2022-11-04T15:18:07.848Z,99870.59
2022-11-04T15:20:41.202Z,99865.66
2022-11-04T15:23:15.497Z,99882.84
2022-11-04T15:25:50.081Z,99896.91
2022-11-04T15:28:23.327Z,99891.81
2022-11-04T15:31:03.709Z,99888.50
2022-11-04T15:33:33.999Z,99893.38
2022-11-04T15:36:02.386Z,99891.47
2022-11-04T15:38:30.648Z,99895.13
2022-11-04T15:41:20.762Z,99886.03
2022-11-04T15:43:48.157Z,99888.31
2022-11-04T15:46:20.697Z,99881.78
2022-11-04T15:49:02.740Z,99884.47
2022-11-04T15:51:35.396Z,99897.38
2022-11-04T15:54:06.487Z,99898.34
2022-11-04T15:56:41.980Z,99902.81
2022-11-04T15:59:14.994Z,99906.78
2022-11-04T16:01:48.041Z,99898.63
2022-11-04T16:04:22.240Z,99911.25
2022-11-04T16:07:24.674Z,99909.97
2022-11-04T16:09:54.588Z,99917.69
2022-11-04T16:12:37.425Z,99920.69
2022-11-04T16:15:05.934Z,99932.47
2022-11-04T16:17:34.407Z,99943.44
2022-11-04T16:20:06.671Z,99944.72
2022-11-04T16:22:37.229Z,99944.28
2022-11-04T16:25:11.180Z,99942.44
2022-11-04T16:27:41.731Z,99946.69
2022-11-04T16:30:18.539Z,99939.69
2022-11-04T16:32:48.995Z,99949.47
2022-11-04T16:35:20.077Z,99955.78
2022-11-04T16:37:48.036Z,99957.75
2022-11-04T16:40:16.360Z,99970.41
2022-11-04T16:42:46.945Z,99958.91
2022-11-04T16:45:26.574Z,99972.44
2022-11-04T16:47:55.149Z,99972.19
2022-11-04T16:50:24.448Z,99979.50
2022-11-04T16:52:52.921Z,99978.97
2022-11-04T16:55:22.835Z,99977.06
2022-11-04T16:57:58.941Z,99985.94
2022-11-04T17:00:28.487Z,99982.75
2022-11-04T17:02:56.408Z,99988.31
2022-11-04T17:05:26.859Z,99981.78
2022-11-04T17:08:00.204Z,99987.97
2022-11-04T17:10:33.408Z,99990.75
2022-11-04T17:13:02.813Z,99995.47
2022-11-04T17:15:30.754Z,100005.06
2022-11-04T17:17:58.646Z,99997.28
2022-11-04T17:20:26.550Z,100011.34
2022-11-04T17:22:54.468Z,100013.72
2022-11-04T17:25:25.814Z,100012.69
2022-11-04T17:27:54.436Z,100014.50
2022-11-04T17:30:24.066Z,100016.34
2022-11-04T17:32:52.397Z,100016.00
2022-11-04T17:35:20.282Z,100017.00
2022-11-04T17:37:53.536Z,100026.94
2022-11-04T17:40:23.836Z,100019.03
2022-11-04T17:43:12.319Z,100037.16
2022-11-04T17:45:43.179Z,100043.91
2022-11-04T17:48:14.164Z,100048.78
2022-11-04T17:50:42.426Z,100047.75
2022-11-04T17:53:10.845Z,100047.03
2022-11-04T17:55:41.135Z,100052.97
2022-11-04T17:58:09.076Z,100049.81
2022-11-04T18:00:36.992Z,100056.31
2022-11-04T18:03:09.014Z,100059.47
2022-11-04T18:05:37.442Z,100055.16
2022-11-04T18:08:05.739Z,100056.84
2022-11-04T18:10:33.870Z,100055.53
2022-11-04T18:13:01.031Z,100059.38
2022-11-04T18:15:28.941Z,100062.56
2022-11-04T18:17:57.396Z,100070.84
2022-11-04T18:20:26.843Z,100076.38
2022-11-04T18:22:54.815Z,100076.81
2022-11-04T18:25:22.709Z,100082.66
2022-11-04T18:27:50.640Z,100088.03
2022-11-04T18:30:18.857Z,100086.91
2022-11-04T18:32:46.726Z,100095.81
2022-11-04T18:35:14.789Z,100099.78
2022-11-04T18:37:47.216Z,100098.38
2022-11-04T18:40:16.065Z,100102.44
2022-11-04T18:42:44.265Z,100113.69
2022-11-04T18:45:13.452Z,100110.00
2022-11-04T18:47:41.345Z,100115.63
2022-11-04T18:50:10.499Z,100123.50
2022-11-04T18:52:38.424Z,100130.47
2022-11-04T18:55:09.361Z,100125.19
2022-11-04T18:57:37.282Z,100128.03
2022-11-04T19:00:06.296Z,100128.22
2022-11-04T19:02:34.323Z,100127.38
2022-11-04T19:05:02.317Z,100128.41
2022-11-04T19:07:30.225Z,100141.31
2022-11-04T19:09:58.227Z,100145.50
2022-11-04T19:12:44.877Z,100144.88
2022-11-04T19:15:12.863Z,100147.97
2022-11-04T19:17:40.872Z,100152.28
2022-11-04T19:20:12.451Z,100144.59
2022-11-04T19:22:41.086Z,100148.38
2022-11-04T19:25:10.153Z,100150.81
2022-11-04T19:27:39.629Z,100151.69
2022-11-04T19:30:08.522Z,100153.25
2022-11-04T19:32:36.462Z,100160.03
2022-11-04T19:35:04.519Z,100159.44
2022-11-04T19:37:33.411Z,100158.78
2022-11-04T19:40:01.543Z,100164.16
2022-11-04T19:42:47.374Z,100155.09
2022-11-04T19:45:16.958Z,100165.25
2022-11-04T19:47:45.507Z,100163.50
2022-11-04T19:50:13.859Z,100158.06
2022-11-04T19:52:42.933Z,100159.06
2022-11-04T19:55:11.461Z,100166.56
2022-11-04T19:57:39.651Z,100162.75
2022-11-04T20:00:11.742Z,100163.03
2022-11-04T20:02:41.383Z,100165.63
2022-11-04T20:05:11.241Z,100166.03
2022-11-04T20:07:39.839Z,100171.63
2022-11-04T20:10:09.578Z,100180.53
2022-11-04T20:12:55.777Z,100186.19
2022-11-04T20:15:26.100Z,100185.19
2022-11-04T20:17:55.583Z,100194.22
2022-11-04T20:20:23.559Z,100196.00
2022-11-04T20:22:52.155Z,100196.75
2022-11-04T20:25:20.188Z,100202.47
2022-11-04T20:27:48.273Z,100209.56
2022-11-04T20:30:16.816Z,100217.72
2022-11-04T20:32:44.900Z,100212.78
2022-11-04T20:35:14.454Z,100212.78
2022-11-04T20:37:43.218Z,100210.84
2022-11-04T20:40:12.436Z,100215.00
2022-11-04T20:42:47.863Z,100216.53
2022-11-04T20:45:16.216Z,100221.97
2022-11-04T20:47:44.315Z,100221.91
2022-11-04T20:50:14.065Z,100226.72
2022-11-04T20:52:42.015Z,100228.50
2022-11-04T20:55:11.323Z,100234.22
2022-11-04T20:57:39.316Z,100237.13
2022-11-04T21:00:09.124Z,100238.38
2022-11-04T21:02:38.167Z,100233.94
2022-11-04T21:05:07.072Z,100237.50
2022-11-04T21:07:38.424Z,100241.84
2022-11-04T21:10:07.058Z,100236.13
2022-11-04T21:12:35.240Z,100245.34
2022-11-04T21:15:03.490Z,100241.34
2022-11-04T21:17:33.905Z,100233.41
2022-11-04T21:20:06.059Z,100236.94
2022-11-04T21:22:35.208Z,100245.38
2022-11-04T21:25:05.351Z,100243.66
2022-11-04T21:27:33.686Z,100243.38
2022-11-04T21:30:01.732Z,100231.97
2022-11-04T21:32:31.295Z,100237.41
2022-11-04T21:34:59.435Z,100240.56
2022-11-04T21:37:27.410Z,100237.31
2022-11-04T21:39:55.510Z,100241.25
2022-11-04T21:42:25.022Z,100239.72
2022-11-04T21:44:53.060Z,100245.78
2022-11-04T21:47:22.160Z,100239.16
2022-11-04T21:49:50.686Z,100238.44
2022-11-04T21:52:18.776Z,100230.50
2022-11-04T21:54:46.841Z,100226.09
2022-11-04T21:57:15.101Z,100225.34
2022-11-04T21:59:44.381Z,100234.25
2022-11-04T22:02:12.520Z,100224.63
2022-11-04T22:04:40.650Z,100222.56
2022-11-04T22:07:08.708Z,100236.78
2022-11-04T22:09:36.732Z,100230.53
2022-11-04T22:12:05.125Z,100224.94
2022-11-04T22:14:33.241Z,100229.28
2022-11-04T22:17:02.875Z,100231.31
2022-11-04T22:19:30.926Z,100224.69
2022-11-04T22:21:58.971Z,100229.00
2022-11-04T22:24:27.047Z,100244.41
2022-11-04T22:26:55.143Z,100232.63
2022-11-04T22:29:23.269Z,100224.16
2022-11-04T22:31:51.432Z,100229.47
2022-11-04T22:34:21.053Z,100228.28
2022-11-04T22:36:49.069Z,100229.31
2022-11-04T22:39:17.271Z,100230.19
2022-11-04T22:41:46.316Z,100234.97
2022-11-04T22:44:15.176Z,100232.16
2022-11-04T22:46:43.571Z,100229.44
2022-11-04T22:49:11.732Z,100228.91
2022-11-04T22:51:41.063Z,100230.84
2022-11-04T22:54:11.410Z,100224.66
2022-11-04T22:56:39.393Z,100222.63
2022-11-04T22:59:08.032Z,100215.91
2022-11-04T23:01:36.437Z,100214.31
2022-11-04T23:04:05.140Z,100215.47
2022-11-04T23:06:33.188Z,100216.09
2022-11-04T23:09:02.922Z,100212.78
2022-11-04T23:11:49.625Z,100204.94
2022-11-04T23:14:37.414Z,100210.09
2022-11-04T23:17:32.571Z,100194.84
2022-11-04T23:20:00.742Z,100201.72
2022-11-04T23:22:46.058Z,100206.25
2022-11-04T23:25:16.097Z,100207.88
2022-11-04T23:28:04.792Z,100202.56
2022-11-04T23:30:34.877Z,100199.06
2022-11-04T23:33:06.668Z,100193.66
2022-11-04T23:35:54.189Z,100192.44
2022-11-04T23:38:22.666Z,100190.66
2022-11-04T23:41:15.402Z,100186.09
2022-11-04T23:43:43.406Z,100184.19
2022-11-04T23:46:29.579Z,100183.41
2022-11-04T23:49:15.121Z,100184.34
2022-11-04T23:52:00.755Z,100196.75
2022-11-04T23:54:57.655Z,100202.13
2022-11-04T23:57:44.894Z,100202.28
